Portada
METAR-TAF:

METAR-TAF

Aeroports :

Camagüey, Cuba

latitud: 21-25N, longitud: 077-51W, altitud: 122 m

Observació

L'informe es va fer fa 1 hora i 15 minuts, a les 01:50 UTC
Vent 5 kt del Nord
Temperatura 20°C
Humitat 88%
Pressió 1019 hPa
Visibilitat: 9000 m
Escasses núvols a una alçada de 2000 ft

METAR: MUCM 090150Z 35005KT 9000 FEW020 20/18 Q1019

Hora: 22:05 (03:05 UTC)

Pronòstic

L'informe es va fer fa 4 hores i 5 minuts, a les 23:00 UTC
Pronòstic vàlid del 09 a les 00 UTC al 09 a les 24 UTC
Vent 8 kt del Nord/Nord-Est
Visibilitat: 9000 m
Núvols disperses a una alçada de 2000 ft
Evolucionant progressivament
l' 09 a les 01 UTC al 09 a les 03 UTC
Vent 3 kt amb direcció variable
Evolucionant progressivament
l' 09 a les 15 UTC al 09 a les 17 UTC
Vent 12 kt del Nord-Est

TAF: MUCM 082300Z 0900/0924 03008KT 9000 SCT020 BECMG 0901/0903 VRB03KT BECMG 0915/0917 04012KT

Observacions i pronòstics meteorològics de més de 4000 aeroports (METAR i TAF).

Les estacions disponibles són els punts grocs i vermells al mapa.

Posi el ratolí al punt desitjat per veure el nom de l'estació.

Feu clic per veure les observacions i els pronòstics meteorològics.

Per canviar el mapa: feu clic els botons verds amb una creu de color negre per apropar; al botó verd amb un guió per allunyar la imatge; o en les fletxes verdes per a mapes adjacents.


METAR-TAF: